Baltic Frost — 9HA2868 — position and weather

sailwx.info

Track history (hours):
 
Tides and Currents Weather Stations Pressure Air Temp Water Temp Dewpoint Dewpoint Depression Visibility Wind Speed Wind Dir Waves Ship Positions

Baltic Frost

Last reported at 2017-Jan-21 16:31 UTC. Time now 2017-Jan-21 17:31 UTC.
Position N 57°28' E 010°40'.

Length 183 m; draft 6.8 m.

Type: Ship. MMSI: 256495000.

Date/timePositionNaut miles runAvg speedWind from/ knotsBaromVisibWave heightAir tempDewpointWater temp
2017-Jan-21 16:31N 57°28' E 010°40'0 0.0
2017-Jan-21 15:29N 57°28' E 010°40'0 0.0
2017-Jan-21 14:32N 57°28' E 010°40'0 0.0
2017-Jan-21 13:33N 57°28' E 010°40'0 0.0
2017-Jan-21 12:33N 57°28' E 010°40'0 0.0
2017-Jan-21 11:28N 57°28' E 010°40'0 0.0
2017-Jan-21 10:33N 57°28' E 010°40'0 0.0
2017-Jan-21 09:33N 57°28' E 010°40'0 0.1
2017-Jan-21 08:33N 57°28' E 010°40'1 0.8
2017-Jan-21 07:33N 57°29' E 010°40'9 9.1
2017-Jan-21 06:34N 57°38' E 010°45'8 8.4
2017-Jan-21 05:33N 57°45' E 010°51'5 4.6
2017-Jan-21 04:33N 57°44' E 010°59'6 5.6
2017-Jan-21 03:33N 57°41' E 011°09'6 5.7
2017-Jan-21 02:34N 57°39' E 011°19'5 5.2
2017-Jan-21 01:33N 57°38' E 011°28'6 5.8
2017-Jan-21 00:34N 57°35' E 011°38'9 8.8
2017-Jan-20 23:33N 57°41' E 011°50'2 1.6
2017-Jan-20 22:31N 57°41' E 011°53'0 0.0
2017-Jan-20 21:33N 57°41' E 011°53'0 0.0
2017-Jan-20 20:33N 57°41' E 011°53'0 0.0
2017-Jan-20 19:32N 57°41' E 011°53'0 0.0
2017-Jan-20 18:32N 57°41' E 011°53'0 0.0
2017-Jan-20 17:32N 57°41' E 011°53'0 0.0
2017-Jan-20 16:31N 57°41' E 011°53'0 0.0
2017-Jan-20 15:31N 57°41' E 011°53'0 0.0
2017-Jan-20 14:33N 57°41' E 011°53'0 0.0
2017-Jan-20 13:33N 57°41' E 011°53'0 0.0
2017-Jan-20 12:32N 57°41' E 011°53'0 0.0
2017-Jan-20 11:32N 57°41' E 011°53'0 0.0
2017-Jan-20 10:31N 57°41' E 011°53'0 0.0
2017-Jan-20 09:31N 57°41' E 011°53'0 0.0
2017-Jan-20 08:31N 57°41' E 011°53'0 0.0
2017-Jan-20 07:33N 57°41' E 011°53'0 0.0
2017-Jan-20 06:33N 57°41' E 011°53'0 0.0
2017-Jan-20 05:32N 57°41' E 011°53'0 0.0
2017-Jan-20 04:32N 57°41' E 011°53'0 0.0
2017-Jan-20 03:31N 57°41' E 011°53'0 0.0
2017-Jan-20 02:31N 57°41' E 011°53'0 0.0
2017-Jan-20 01:31N 57°41' E 011°53'0 0.0
2017-Jan-20 00:33N 57°41' E 011°53'0 0.0
2017-Jan-19 23:33N 57°41' E 011°53'0 0.0
2017-Jan-19 22:32N 57°41' E 011°53'0 0.0
2017-Jan-19 21:32N 57°41' E 011°53'0 0.0
2017-Jan-19 20:31N 57°41' E 011°53'0 0.0
2017-Jan-19 19:31N 57°41' E 011°53'0 0.0
2017-Jan-19 18:31N 57°41' E 011°53'0 0.0
2017-Jan-19 17:33N 57°41' E 011°53'0 0.0
2017-Jan-19 16:33N 57°41' E 011°53'0 0.0
2017-Jan-19 15:32N 57°41' E 011°53'0 0.0
2017-Jan-19 14:32N 57°41' E 011°53'0 0.0
2017-Jan-19 13:31N 57°41' E 011°53'0 0.0
2017-Jan-19 12:31N 57°41' E 011°53'0 0.0
2017-Jan-19 11:31N 57°41' E 011°53'0 0.0
2017-Jan-19 10:33N 57°41' E 011°53'0 0.0
2017-Jan-19 09:33N 57°41' E 011°53'0 0.3
2017-Jan-19 08:33N 57°41' E 011°52'5 5.0
2017-Jan-19 07:34N 57°39' E 011°44'7 6.4
2017-Jan-19 06:31N 57°33' E 011°39'0 0.1
2017-Jan-19 05:31N 57°33' E 011°39'0 0.0
2017-Jan-19 04:33N 57°33' E 011°39'0 0.0
2017-Jan-19 03:33N 57°33' E 011°39'0 0.0
2017-Jan-19 02:32N 57°33' E 011°39'0 0.0
2017-Jan-19 01:32N 57°33' E 011°39'0 0.0
2017-Jan-19 00:32N 57°33' E 011°39'0 0.0
2017-Jan-18 23:31N 57°33' E 011°39'0 0.0
2017-Jan-18 22:31N 57°33' E 011°39'0 0.1
2017-Jan-18 21:33N 57°33' E 011°39'0 0.1
2017-Jan-18 20:33N 57°33' E 011°39'0 0.1
2017-Jan-18 19:29N 57°33' E 011°39'0 0.0
2017-Jan-18 18:32N 57°33' E 011°39'0 0.0
2017-Jan-18 17:32N 57°33' E 011°39'0 0.0
2017-Jan-18 16:31N 57°33' E 011°39'0 0.0
2017-Jan-18 15:31N 57°33' E 011°39'0 0.0
2017-Jan-18 14:33N 57°33' E 011°39'0 0.0
2017-Jan-18 13:33N 57°33' E 011°39'0 0.0
2017-Jan-18 12:32N 57°33' E 011°39'0 0.0
2017-Jan-18 11:32N 57°33' E 011°39'0 0.0
2017-Jan-18 10:28N 57°33' E 011°39'0 0.1
2017-Jan-18 09:31N 57°33' E 011°39'0 0.0
2017-Jan-18 08:28N 57°33' E 011°39'0 0.0
2017-Jan-18 07:33N 57°33' E 011°39'0 0.0
2017-Jan-18 06:33N 57°33' E 011°39'0 0.0
2017-Jan-18 05:32N 57°33' E 011°39'0 0.1
2017-Jan-18 04:32N 57°33' E 011°39'0 0.1
2017-Jan-18 03:31N 57°33' E 011°39'0 0.0
2017-Jan-18 02:31N 57°33' E 011°39'0 0.0
2017-Jan-18 01:31N 57°33' E 011°39'0 0.0
2017-Jan-18 00:33N 57°33' E 011°39'0 0.0
2017-Jan-17 23:33N 57°33' E 011°39'0 0.0
2017-Jan-17 22:32N 57°33' E 011°39'0 0.0
2017-Jan-17 21:32N 57°33' E 011°39'0 0.0
2017-Jan-17 20:31N 57°33' E 011°39'0 0.0
2017-Jan-17 19:31N 57°33' E 011°39'0 0.0
2017-Jan-17 18:31N 57°33' E 011°39'0 0.0
2017-Jan-17 17:33N 57°33' E 011°39'0 0.0
2017-Jan-17 16:33N 57°33' E 011°39'0 0.0
2017-Jan-17 15:32N 57°33' E 011°39'0 0.1
2017-Jan-17 14:32N 57°33' E 011°39'0 0.0
2017-Jan-17 13:32N 57°33' E 011°39'0 0.0
2017-Jan-17 12:31N 57°33' E 011°39'0 0.0
2017-Jan-17 11:28N 57°33' E 011°39'0 0.0
2017-Jan-17 10:33N 57°33' E 011°39'0 0.0
2017-Jan-17 09:33N 57°33' E 011°39'0 0.0
2017-Jan-17 08:32N 57°33' E 011°39'0 0.0
2017-Jan-17 07:32N 57°33' E 011°39'0 0.0
2017-Jan-17 06:31N 57°33' E 011°39'0 0.0
2017-Jan-17 05:31N 57°33' E 011°39'0 0.0
2017-Jan-17 04:31N 57°33' E 011°39'0 0.0
2017-Jan-17 03:33N 57°33' E 011°39'0 0.0
2017-Jan-17 02:33N 57°33' E 011°39'0 0.0
2017-Jan-17 01:32N 57°33' E 011°39'0 0.0
2017-Jan-17 00:32N 57°33' E 011°39'0 0.2
2017-Jan-16 23:31N 57°33' E 011°39'0 0.1
2017-Jan-16 22:31N 57°33' E 011°39'0 0.1
2017-Jan-16 21:33N 57°33' E 011°39'0 0.0
2017-Jan-16 20:30N 57°33' E 011°39'0 0.0
2017-Jan-16 19:33N 57°33' E 011°39'0 0.1
2017-Jan-16 18:32N 57°33' E 011°39'0 0.0
2017-Jan-16 17:26N 57°33' E 011°39'0 0.0
2017-Jan-16 16:31N 57°33' E 011°39'0 0.0
2017-Jan-16 15:31N 57°33' E 011°39'0 0.0
2017-Jan-16 14:30N 57°33' E 011°39'0 0.0
2017-Jan-16 13:33N 57°33' E 011°39'0 0.0
2017-Jan-16 12:33N 57°33' E 011°39'0 0.1
2017-Jan-16 11:32N 57°33' E 011°39'0 0.1
2017-Jan-16 10:32N 57°33' E 011°39'0 0.0
2017-Jan-16 09:31N 57°33' E 011°39'0 0.0
2017-Jan-16 08:32N 57°33' E 011°39'0 0.0
2017-Jan-16 07:33N 57°33' E 011°39'0 0.1
2017-Jan-16 06:33N 57°33' E 011°39'0 0.1
2017-Jan-16 05:33N 57°33' E 011°39'0 0.0
2017-Jan-16 04:26N 57°33' E 011°39'0 0.0
2017-Jan-16 03:32N 57°33' E 011°39'0 0.1
2017-Jan-16 02:31N 57°33' E 011°39'0 0.1
2017-Jan-16 01:31N 57°33' E 011°39'0 0.0
2017-Jan-16 00:33N 57°33' E 011°39'0 0.0
2017-Jan-15 23:33N 57°33' E 011°39'0 0.1
2017-Jan-15 22:33N 57°33' E 011°39'0 0.0
2017-Jan-15 21:32N 57°33' E 011°39'0 0.1
2017-Jan-15 20:32N 57°33' E 011°39'0 0.1
2017-Jan-15 19:31N 57°33' E 011°39'0 0.0
2017-Jan-15 18:31N 57°33' E 011°39'0 0.0
2017-Jan-15 17:34N 57°33' E 011°39'0 0.0
2017-Jan-15 16:33N 57°33' E 011°39'0 0.0
2017-Jan-15 15:33N 57°33' E 011°39'0 0.0
2017-Jan-15 14:32N 57°33' E 011°39'0 0.0
2017-Jan-15 13:29N 57°33' E 011°39'0 0.0
2017-Jan-15 12:31N 57°33' E 011°39'0 0.0
2017-Jan-15 11:31N 57°33' E 011°39'0 0.0
2017-Jan-15 10:33N 57°33' E 011°39'0 0.0
2017-Jan-15 09:33N 57°33' E 011°39'0 0.1
2017-Jan-15 08:33N 57°33' E 011°39'0 0.1
2017-Jan-15 07:32N 57°33' E 011°39'0 0.0
2017-Jan-15 06:26N 57°33' E 011°39'0 0.0
2017-Jan-15 05:31N 57°33' E 011°39'0 0.1
2017-Jan-15 04:31N 57°33' E 011°39'0 0.1
2017-Jan-15 03:33N 57°33' E 011°39'0 0.0
2017-Jan-15 02:33N 57°33' E 011°39'0 0.0
2017-Jan-15 01:33N 57°33' E 011°39'0 0.0
2017-Jan-15 00:32N 57°33' E 011°39'0 0.0
2017-Jan-14 23:29N 57°33' E 011°39'0 0.0
2017-Jan-14 22:31N 57°33' E 011°39'0 0.0
2017-Jan-14 21:31N 57°33' E 011°39'0 0.0
2017-Jan-14 20:33N 57°33' E 011°39'0 0.0
2017-Jan-14 19:33N 57°33' E 011°39'0 0.0
2017-Jan-14 18:32N 57°33' E 011°39'0 0.0
2017-Jan-14 17:29N 57°33' E 011°39'0 0.0
2017-Jan-14 16:32N 57°33' E 011°39'0 0.1
2017-Jan-14 15:31N 57°33' E 011°39'0 0.0
2017-Jan-14 14:31N 57°33' E 011°39'0 0.0
2017-Jan-14 13:33N 57°33' E 011°39'0 0.0
2017-Jan-14 12:33N 57°33' E 011°39'0 0.0
2017-Jan-14 11:32N 57°33' E 011°39'0 0.0
2017-Jan-14 10:32N 57°33' E 011°39'0 0.0
2017-Jan-14 09:26N 57°33' E 011°39'0 0.0
2017-Jan-14 08:31N 57°33' E 011°39'0 0.0
2017-Jan-14 07:31N 57°33' E 011°39'0 0.0
2017-Jan-14 06:33N 57°33' E 011°39'0 0.0
2017-Jan-14 05:33N 57°33' E 011°39'0 0.0
2017-Jan-14 04:32N 57°33' E 011°39'0 0.0
2017-Jan-14 03:32N 57°33' E 011°39'0 0.0
2017-Jan-13 23:33N 57°33' E 011°39'3 2.6
2017-Jan-13 22:33N 57°34' E 011°34'1212.5
2017-Jan-13 21:33N 57°39' E 011°13'1212.2
2017-Jan-13 20:33N 57°44' E 010°52'1312.8
2017-Jan-13 19:33N 57°48' E 010°29'1313.2
2017-Jan-13 18:33N 57°45' E 010°05'16111.5
2017-Jan-13 04:30N 55°39' E 007°01'1212.6
2017-Jan-13 03:33N 55°27' E 007°02'1313.2
2017-Jan-13 02:33N 55°14' E 007°02'1313.4
2017-Jan-13 01:33N 55°01' E 007°02'1313.1
2017-Jan-13 00:33N 54°48' E 007°02'6311.6
2017-Jan-12 19:05N 54°00' E 008°15'712.8
2017-Jan-12 18:33N 53°59' E 008°26'1615.8
2017-Jan-12 17:33N 53°50' E 008°49'1413.6
2017-Jan-12 16:33N 53°53' E 009°11'1414.0
2017-Jan-12 15:34N 53°43' E 009°28'1312.5
2017-Jan-12 14:33N 53°34' E 009°42'8 8.5
2017-Jan-12 13:33N 53°32' E 009°56'2 1.9
2017-Jan-12 12:33N 53°31' E 009°57'0 0.0
2017-Jan-12 11:33N 53°31' E 009°57'0 0.0
2017-Jan-12 10:32N 53°31' E 009°57'0 0.0
2017-Jan-12 09:32N 53°31' E 009°57'0 0.0
2017-Jan-12 08:32N 53°31' E 009°57'0 0.0
2017-Jan-12 07:31N 53°31' E 009°57'0 0.0
2017-Jan-12 06:31N 53°31' E 009°57'0 0.0
2017-Jan-12 05:33N 53°31' E 009°57'0 0.0
2017-Jan-12 04:33N 53°31' E 009°57'0 0.0
2017-Jan-12 03:32N 53°31' E 009°57'0 0.0
2017-Jan-12 02:32N 53°31' E 009°57'0 0.0
2017-Jan-12 01:32N 53°31' E 009°57'0 0.0
2017-Jan-12 00:31N 53°31' E 009°57'0 0.0
2017-Jan-11 23:31N 53°31' E 009°57'0 0.0
2017-Jan-11 22:33N 53°31' E 009°57'0 0.0
2017-Jan-11 21:33N 53°31' E 009°57'0 0.0
2017-Jan-11 20:32N 53°31' E 009°57'0 0.0
2017-Jan-11 19:32N 53°31' E 009°57'0 0.0
2017-Jan-11 18:32N 53°31' E 009°57'0 0.0
2017-Jan-11 17:31N 53°31' E 009°57'0 0.0
2017-Jan-11 16:33N 53°31' E 009°57'  
Track history (hours):
 
Tides and Currents Weather Stations Pressure Air Temp Water Temp Dewpoint Dewpoint Depression Visibility Wind Speed Wind Dir Waves Ship Positions

Baltic Frost

Last reported at 2017-Jan-21 16:31 UTC. Time now 2017-Jan-21 17:31 UTC.
Position N 57°28' E 010°40'.

Length 183 m; draft 6.8 m.

Type: Ship. MMSI: 256495000.

Date/timePositionNaut miles runAvg speedWind from/ knotsBaromVisibWave heightAir tempDewpointWater temp
2017-Jan-21 16:31N 57°28' E 010°40'0 0.0
2017-Jan-21 15:29N 57°28' E 010°40'0 0.0
2017-Jan-21 14:32N 57°28' E 010°40'0 0.0
2017-Jan-21 13:33N 57°28' E 010°40'0 0.0
2017-Jan-21 12:33N 57°28' E 010°40'0 0.0
2017-Jan-21 11:28N 57°28' E 010°40'0 0.0
2017-Jan-21 10:33N 57°28' E 010°40'0 0.0
2017-Jan-21 09:33N 57°28' E 010°40'0 0.1
2017-Jan-21 08:33N 57°28' E 010°40'1 0.8
2017-Jan-21 07:33N 57°29' E 010°40'9 9.1
2017-Jan-21 06:34N 57°38' E 010°45'8 8.4
2017-Jan-21 05:33N 57°45' E 010°51'5 4.6
2017-Jan-21 04:33N 57°44' E 010°59'6 5.6
2017-Jan-21 03:33N 57°41' E 011°09'6 5.7
2017-Jan-21 02:34N 57°39' E 011°19'5 5.2
2017-Jan-21 01:33N 57°38' E 011°28'6 5.8
2017-Jan-21 00:34N 57°35' E 011°38'9 8.8
2017-Jan-20 23:33N 57°41' E 011°50'2 1.6
2017-Jan-20 22:31N 57°41' E 011°53'0 0.0
2017-Jan-20 21:33N 57°41' E 011°53'0 0.0
2017-Jan-20 20:33N 57°41' E 011°53'0 0.0
2017-Jan-20 19:32N 57°41' E 011°53'0 0.0
2017-Jan-20 18:32N 57°41' E 011°53'0 0.0
2017-Jan-20 17:32N 57°41' E 011°53'0 0.0
2017-Jan-20 16:31N 57°41' E 011°53'0 0.0
2017-Jan-20 15:31N 57°41' E 011°53'0 0.0
2017-Jan-20 14:33N 57°41' E 011°53'0 0.0
2017-Jan-20 13:33N 57°41' E 011°53'0 0.0
2017-Jan-20 12:32N 57°41' E 011°53'0 0.0
2017-Jan-20 11:32N 57°41' E 011°53'0 0.0
2017-Jan-20 10:31N 57°41' E 011°53'0 0.0
2017-Jan-20 09:31N 57°41' E 011°53'0 0.0
2017-Jan-20 08:31N 57°41' E 011°53'0 0.0
2017-Jan-20 07:33N 57°41' E 011°53'0 0.0
2017-Jan-20 06:33N 57°41' E 011°53'0 0.0
2017-Jan-20 05:32N 57°41' E 011°53'0 0.0
2017-Jan-20 04:32N 57°41' E 011°53'0 0.0
2017-Jan-20 03:31N 57°41' E 011°53'0 0.0
2017-Jan-20 02:31N 57°41' E 011°53'0 0.0
2017-Jan-20 01:31N 57°41' E 011°53'0 0.0
2017-Jan-20 00:33N 57°41' E 011°53'0 0.0
2017-Jan-19 23:33N 57°41' E 011°53'0 0.0
2017-Jan-19 22:32N 57°41' E 011°53'0 0.0
2017-Jan-19 21:32N 57°41' E 011°53'0 0.0
2017-Jan-19 20:31N 57°41' E 011°53'0 0.0
2017-Jan-19 19:31N 57°41' E 011°53'0 0.0
2017-Jan-19 18:31N 57°41' E 011°53'0 0.0
2017-Jan-19 17:33N 57°41' E 011°53'0 0.0
2017-Jan-19 16:33N 57°41' E 011°53'0 0.0
2017-Jan-19 15:32N 57°41' E 011°53'0 0.0
2017-Jan-19 14:32N 57°41' E 011°53'0 0.0
2017-Jan-19 13:31N 57°41' E 011°53'0 0.0
2017-Jan-19 12:31N 57°41' E 011°53'0 0.0
2017-Jan-19 11:31N 57°41' E 011°53'0 0.0
2017-Jan-19 10:33N 57°41' E 011°53'0 0.0
2017-Jan-19 09:33N 57°41' E 011°53'0 0.3
2017-Jan-19 08:33N 57°41' E 011°52'5 5.0
2017-Jan-19 07:34N 57°39' E 011°44'7 6.4
2017-Jan-19 06:31N 57°33' E 011°39'0 0.1
2017-Jan-19 05:31N 57°33' E 011°39'0 0.0
2017-Jan-19 04:33N 57°33' E 011°39'0 0.0
2017-Jan-19 03:33N 57°33' E 011°39'0 0.0
2017-Jan-19 02:32N 57°33' E 011°39'0 0.0
2017-Jan-19 01:32N 57°33' E 011°39'0 0.0
2017-Jan-19 00:32N 57°33' E 011°39'0 0.0
2017-Jan-18 23:31N 57°33' E 011°39'0 0.0
2017-Jan-18 22:31N 57°33' E 011°39'0 0.1
2017-Jan-18 21:33N 57°33' E 011°39'0 0.1
2017-Jan-18 20:33N 57°33' E 011°39'0 0.1
2017-Jan-18 19:29N 57°33' E 011°39'0 0.0
2017-Jan-18 18:32N 57°33' E 011°39'0 0.0
2017-Jan-18 17:32N 57°33' E 011°39'0 0.0
2017-Jan-18 16:31N 57°33' E 011°39'0 0.0
2017-Jan-18 15:31N 57°33' E 011°39'0 0.0
2017-Jan-18 14:33N 57°33' E 011°39'0 0.0
2017-Jan-18 13:33N 57°33' E 011°39'0 0.0
2017-Jan-18 12:32N 57°33' E 011°39'0 0.0
2017-Jan-18 11:32N 57°33' E 011°39'0 0.0
2017-Jan-18 10:28N 57°33' E 011°39'0 0.1
2017-Jan-18 09:31N 57°33' E 011°39'0 0.0
2017-Jan-18 08:28N 57°33' E 011°39'0 0.0
2017-Jan-18 07:33N 57°33' E 011°39'0 0.0
2017-Jan-18 06:33N 57°33' E 011°39'0 0.0
2017-Jan-18 05:32N 57°33' E 011°39'0 0.1
2017-Jan-18 04:32N 57°33' E 011°39'0 0.1
2017-Jan-18 03:31N 57°33' E 011°39'0 0.0
2017-Jan-18 02:31N 57°33' E 011°39'0 0.0
2017-Jan-18 01:31N 57°33' E 011°39'0 0.0
2017-Jan-18 00:33N 57°33' E 011°39'0 0.0
2017-Jan-17 23:33N 57°33' E 011°39'0 0.0
2017-Jan-17 22:32N 57°33' E 011°39'0 0.0
2017-Jan-17 21:32N 57°33' E 011°39'0 0.0
2017-Jan-17 20:31N 57°33' E 011°39'0 0.0
2017-Jan-17 19:31N 57°33' E 011°39'0 0.0
2017-Jan-17 18:31N 57°33' E 011°39'0 0.0
2017-Jan-17 17:33N 57°33' E 011°39'0 0.0
2017-Jan-17 16:33N 57°33' E 011°39'0 0.0
2017-Jan-17 15:32N 57°33' E 011°39'0 0.1
2017-Jan-17 14:32N 57°33' E 011°39'0 0.0
2017-Jan-17 13:32N 57°33' E 011°39'0 0.0
2017-Jan-17 12:31N 57°33' E 011°39'0 0.0
2017-Jan-17 11:28N 57°33' E 011°39'0 0.0
2017-Jan-17 10:33N 57°33' E 011°39'0 0.0
2017-Jan-17 09:33N 57°33' E 011°39'0 0.0
2017-Jan-17 08:32N 57°33' E 011°39'0 0.0
2017-Jan-17 07:32N 57°33' E 011°39'0 0.0
2017-Jan-17 06:31N 57°33' E 011°39'0 0.0
2017-Jan-17 05:31N 57°33' E 011°39'0 0.0
2017-Jan-17 04:31N 57°33' E 011°39'0 0.0
2017-Jan-17 03:33N 57°33' E 011°39'0 0.0
2017-Jan-17 02:33N 57°33' E 011°39'0 0.0
2017-Jan-17 01:32N 57°33' E 011°39'0 0.0
2017-Jan-17 00:32N 57°33' E 011°39'0 0.2
2017-Jan-16 23:31N 57°33' E 011°39'0 0.1
2017-Jan-16 22:31N 57°33' E 011°39'0 0.1
2017-Jan-16 21:33N 57°33' E 011°39'0 0.0
2017-Jan-16 20:30N 57°33' E 011°39'0 0.0
2017-Jan-16 19:33N 57°33' E 011°39'0 0.1
2017-Jan-16 18:32N 57°33' E 011°39'0 0.0
2017-Jan-16 17:26N 57°33' E 011°39'0 0.0
2017-Jan-16 16:31N 57°33' E 011°39'0 0.0
2017-Jan-16 15:31N 57°33' E 011°39'0 0.0
2017-Jan-16 14:30N 57°33' E 011°39'0 0.0
2017-Jan-16 13:33N 57°33' E 011°39'0 0.0
2017-Jan-16 12:33N 57°33' E 011°39'0 0.1
2017-Jan-16 11:32N 57°33' E 011°39'0 0.1
2017-Jan-16 10:32N 57°33' E 011°39'0 0.0
2017-Jan-16 09:31N 57°33' E 011°39'0 0.0
2017-Jan-16 08:32N 57°33' E 011°39'0 0.0
2017-Jan-16 07:33N 57°33' E 011°39'0 0.1
2017-Jan-16 06:33N 57°33' E 011°39'0 0.1
2017-Jan-16 05:33N 57°33' E 011°39'0 0.0
2017-Jan-16 04:26N 57°33' E 011°39'0 0.0
2017-Jan-16 03:32N 57°33' E 011°39'0 0.1
2017-Jan-16 02:31N 57°33' E 011°39'0 0.1
2017-Jan-16 01:31N 57°33' E 011°39'0 0.0
2017-Jan-16 00:33N 57°33' E 011°39'0 0.0
2017-Jan-15 23:33N 57°33' E 011°39'0 0.1
2017-Jan-15 22:33N 57°33' E 011°39'0 0.0
2017-Jan-15 21:32N 57°33' E 011°39'0 0.1
2017-Jan-15 20:32N 57°33' E 011°39'0 0.1
2017-Jan-15 19:31N 57°33' E 011°39'0 0.0
2017-Jan-15 18:31N 57°33' E 011°39'0 0.0
2017-Jan-15 17:34N 57°33' E 011°39'0 0.0
2017-Jan-15 16:33N 57°33' E 011°39'0 0.0
2017-Jan-15 15:33N 57°33' E 011°39'0 0.0
2017-Jan-15 14:32N 57°33' E 011°39'0 0.0
2017-Jan-15 13:29N 57°33' E 011°39'0 0.0
2017-Jan-15 12:31N 57°33' E 011°39'0 0.0
2017-Jan-15 11:31N 57°33' E 011°39'0 0.0
2017-Jan-15 10:33N 57°33' E 011°39'0 0.0
2017-Jan-15 09:33N 57°33' E 011°39'0 0.1
2017-Jan-15 08:33N 57°33' E 011°39'0 0.1
2017-Jan-15 07:32N 57°33' E 011°39'0 0.0
2017-Jan-15 06:26N 57°33' E 011°39'0 0.0
2017-Jan-15 05:31N 57°33' E 011°39'0 0.1
2017-Jan-15 04:31N 57°33' E 011°39'0 0.1
2017-Jan-15 03:33N 57°33' E 011°39'0 0.0
2017-Jan-15 02:33N 57°33' E 011°39'0 0.0
2017-Jan-15 01:33N 57°33' E 011°39'0 0.0
2017-Jan-15 00:32N 57°33' E 011°39'0 0.0
2017-Jan-14 23:29N 57°33' E 011°39'0 0.0
2017-Jan-14 22:31N 57°33' E 011°39'0 0.0
2017-Jan-14 21:31N 57°33' E 011°39'0 0.0
2017-Jan-14 20:33N 57°33' E 011°39'0 0.0
2017-Jan-14 19:33N 57°33' E 011°39'0 0.0
2017-Jan-14 18:32N 57°33' E 011°39'0 0.0
2017-Jan-14 17:29N 57°33' E 011°39'0 0.0
2017-Jan-14 16:32N 57°33' E 011°39'0 0.1
2017-Jan-14 15:31N 57°33' E 011°39'0 0.0
2017-Jan-14 14:31N 57°33' E 011°39'0 0.0
2017-Jan-14 13:33N 57°33' E 011°39'0 0.0
2017-Jan-14 12:33N 57°33' E 011°39'0 0.0
2017-Jan-14 11:32N 57°33' E 011°39'0 0.0
2017-Jan-14 10:32N 57°33' E 011°39'0 0.0
2017-Jan-14 09:26N 57°33' E 011°39'0 0.0
2017-Jan-14 08:31N 57°33' E 011°39'0 0.0
2017-Jan-14 07:31N 57°33' E 011°39'0 0.0
2017-Jan-14 06:33N 57°33' E 011°39'0 0.0
2017-Jan-14 05:33N 57°33' E 011°39'0 0.0
2017-Jan-14 04:32N 57°33' E 011°39'0 0.0
2017-Jan-14 03:32N 57°33' E 011°39'0 0.0
2017-Jan-13 23:33N 57°33' E 011°39'3 2.6
2017-Jan-13 22:33N 57°34' E 011°34'1212.5
2017-Jan-13 21:33N 57°39' E 011°13'1212.2
2017-Jan-13 20:33N 57°44' E 010°52'1312.8
2017-Jan-13 19:33N 57°48' E 010°29'1313.2
2017-Jan-13 18:33N 57°45' E 010°05'16111.5
2017-Jan-13 04:30N 55°39' E 007°01'1212.6
2017-Jan-13 03:33N 55°27' E 007°02'1313.2
2017-Jan-13 02:33N 55°14' E 007°02'1313.4
2017-Jan-13 01:33N 55°01' E 007°02'1313.1
2017-Jan-13 00:33N 54°48' E 007°02'6311.6
2017-Jan-12 19:05N 54°00' E 008°15'712.8
2017-Jan-12 18:33N 53°59' E 008°26'1615.8
2017-Jan-12 17:33N 53°50' E 008°49'1413.6
2017-Jan-12 16:33N 53°53' E 009°11'1414.0
2017-Jan-12 15:34N 53°43' E 009°28'1312.5
2017-Jan-12 14:33N 53°34' E 009°42'8 8.5
2017-Jan-12 13:33N 53°32' E 009°56'2 1.9
2017-Jan-12 12:33N 53°31' E 009°57'0 0.0
2017-Jan-12 11:33N 53°31' E 009°57'0 0.0
2017-Jan-12 10:32N 53°31' E 009°57'0 0.0
2017-Jan-12 09:32N 53°31' E 009°57'0 0.0
2017-Jan-12 08:32N 53°31' E 009°57'0 0.0
2017-Jan-12 07:31N 53°31' E 009°57'0 0.0
2017-Jan-12 06:31N 53°31' E 009°57'0 0.0
2017-Jan-12 05:33N 53°31' E 009°57'0 0.0
2017-Jan-12 04:33N 53°31' E 009°57'0 0.0
2017-Jan-12 03:32N 53°31' E 009°57'0 0.0
2017-Jan-12 02:32N 53°31' E 009°57'0 0.0
2017-Jan-12 01:32N 53°31' E 009°57'0 0.0
2017-Jan-12 00:31N 53°31' E 009°57'0 0.0
2017-Jan-11 23:31N 53°31' E 009°57'0 0.0
2017-Jan-11 22:33N 53°31' E 009°57'0 0.0
2017-Jan-11 21:33N 53°31' E 009°57'0 0.0
2017-Jan-11 20:32N 53°31' E 009°57'0 0.0
2017-Jan-11 19:32N 53°31' E 009°57'0 0.0
2017-Jan-11 18:32N 53°31' E 009°57'0 0.0
2017-Jan-11 17:31N 53°31' E 009°57'0 0.0
2017-Jan-11 16:33N 53°31' E 009°57'  

Dump ship's entire track history